Time;durP1;ratioP1;P1;durP2;ratioP2;P2;SDS_P1;SDS_P2;PMS_P1;PMS_P2;Temp;Humidity;BMP_temperature;BMP_pressure;BME280_temperature;BME280_humidity;BME280_pressure;Samples;Min_cycle;Max_cycle;Signal;HPM_P1;HPM_P2
2021/10/17 00:01:05;;;;;;;8.45;5.63;;;;;;;3.40;98.01;99080.91;4154312;28;20045;-72
2021/10/17 00:03:06;;;;;;;8.80;5.75;;;;;;;3.42;98.12;99075.94;4138308;28;20042;-72
2021/10/17 00:05:08;;;;;;;10.10;6.65;;;;;;;3.46;98.00;99084.28;4124591;28;20537;-72
2021/10/17 00:07:10;;;;;;;12.30;5.78;;;;;;;3.46;98.04;99070.63;4137600;28;20033;-72
2021/10/17 00:09:10;;;;;;;11.93;6.28;;;;;;;3.45;98.00;99067.06;4138423;28;20085;-72
2021/10/17 00:11:11;;;;;;;12.80;7.18;;;;;;;3.51;98.03;99082.22;4139651;28;20053;-72
2021/10/17 00:13:11;;;;;;;10.95;6.25;;;;;;;3.48;98.45;99088.34;4137754;28;20064;-72
2021/10/17 00:15:15;;;;;;;9.13;5.60;;;;;;;3.47;98.36;99078.50;4138482;28;20049;-72
2021/10/17 00:17:15;;;;;;;8.15;4.90;;;;;;;3.45;98.50;99077.22;4142120;28;20045;-72
2021/10/17 00:19:15;;;;;;;9.82;6.10;;;;;;;3.47;98.58;99081.25;4142345;28;20049;-71
2021/10/17 00:21:16;;;;;;;10.93;6.10;;;;;;;3.49;98.49;99080.94;4145762;28;20045;-71
2021/10/17 00:23:16;;;;;;;9.85;5.97;;;;;;;3.57;97.99;99077.44;4141482;28;20065;-72
2021/10/17 00:25:17;;;;;;;10.02;5.85;;;;;;;3.57;98.24;99085.66;4143940;28;20042;-72
2021/10/17 00:27:17;;;;;;;13.88;7.53;;;;;;;3.53;98.98;99090.13;4143628;28;20498;-72
2021/10/17 00:29:17;;;;;;;11.35;6.40;;;;;;;3.50;98.58;99080.63;4144020;28;20512;-72
2021/10/17 00:31:18;;;;;;;7.50;5.63;;;;;;;3.51;98.56;99073.22;4141906;28;20594;-72
2021/10/17 00:33:18;;;;;;;9.68;5.75;;;;;;;3.54;98.35;99069.84;4142156;28;20042;-71
2021/10/17 00:35:19;;;;;;;9.75;6.35;;;;;;;3.55;97.66;99071.44;4144836;28;20041;-71
2021/10/17 00:37:19;;;;;;;11.10;6.32;;;;;;;3.53;98.50;99076.44;4142153;28;20048;-71
2021/10/17 00:39:20;;;;;;;12.80;6.30;;;;;;;3.53;98.31;99070.97;4141535;28;20065;-71
2021/10/17 00:41:20;;;;;;;8.30;5.18;;;;;;;3.57;98.29;99061.03;4143657;28;20157;-72
2021/10/17 00:43:22;;;;;;;10.32;6.07;;;;;;;3.58;98.01;99065.38;4135733;28;20088;-72
2021/10/17 00:45:30;;;;;;;11.50;5.45;;;;;;;3.62;98.53;99071.81;4142925;28;20554;-72
2021/10/17 00:47:30;;;;;;;10.63;5.43;;;;;;;3.67;98.09;99058.78;4142204;28;20045;-71
2021/10/17 00:49:31;;;;;;;12.02;5.93;;;;;;;3.72;97.29;99066.03;4143054;28;20044;-71
2021/10/17 00:51:31;;;;;;;10.35;5.03;;;;;;;3.71;97.32;99056.19;4140886;28;20073;-71
2021/10/17 00:53:31;;;;;;;9.45;5.43;;;;;;;3.79;97.72;99060.09;4141463;28;20073;-71
2021/10/17 00:55:32;;;;;;;9.73;5.28;;;;;;;3.80;97.50;99067.16;4143689;28;20044;-71
2021/10/17 00:57:33;;;;;;;7.75;4.85;;;;;;;3.81;97.34;99069.63;4143271;28;20053;-72
2021/10/17 00:59:33;;;;;;;7.35;4.50;;;;;;;3.87;96.82;99065.56;4142719;28;20034;-72
2021/10/17 01:01:35;;;;;;;9.27;5.00;;;;;;;3.89;96.76;99079.78;4142835;28;20052;-72
2021/10/17 01:03:35;;;;;;;8.60;4.93;;;;;;;3.91;97.42;99073.97;4142459;28;20064;-71
2021/10/17 01:05:35;;;;;;;6.28;4.35;;;;;;;3.90;97.32;99062.22;4141545;28;20044;-71
2021/10/17 01:07:36;;;;;;;7.70;4.80;;;;;;;3.88;97.46;99053.50;4144117;28;20125;-71
2021/10/17 01:09:38;;;;;;;9.55;5.10;;;;;;;3.89;97.40;99057.06;4141393;28;20141;-71
2021/10/17 01:11:45;;;;;;;11.88;5.53;;;;;;;3.87;97.63;99051.88;4143448;28;20754;-71
2021/10/17 01:13:45;;;;;;;8.75;5.25;;;;;;;3.91;97.51;99041.13;4140932;28;20132;-72
2021/10/17 01:15:54;;;;;;;11.10;5.40;;;;;;;3.89;97.39;99038.72;4140785;28;20080;-72
2021/10/17 01:17:54;;;;;;;11.02;5.95;;;;;;;3.94;97.78;99052.22;4141976;28;20063;-71
2021/10/17 01:19:55;;;;;;;9.55;5.85;;;;;;;3.88;98.29;99037.06;4143958;28;20045;-71
2021/10/17 01:21:55;;;;;;;10.00;5.57;;;;;;;3.93;97.40;99036.94;4141579;28;20120;-72
2021/10/17 01:23:56;;;;;;;10.23;5.68;;;;;;;3.93;97.38;99055.28;4138593;28;20163;-72
2021/10/17 01:25:56;;;;;;;8.10;5.70;;;;;;;3.92;97.45;99045.47;4143326;28;20139;-72
2021/10/17 01:27:57;;;;;;;8.18;5.30;;;;;;;3.95;97.82;99042.88;4141476;28;20047;-71
2021/10/17 01:29:57;;;;;;;10.25;5.32;;;;;;;4.01;97.27;99040.81;4143127;28;20108;-72
2021/10/17 01:31:58;;;;;;;11.80;5.68;;;;;;;4.03;96.60;99037.75;4142507;28;20053;-72
2021/10/17 01:33:58;;;;;;;12.45;5.72;;;;;;;4.03;97.26;99035.81;4142202;28;20046;-71
2021/10/17 01:35:58;;;;;;;9.70;6.18;;;;;;;4.06;96.54;99037.13;4136455;28;20038;-71
2021/10/17 01:37:59;;;;;;;13.82;5.32;;;;;;;4.04;96.95;99047.56;4137508;28;20074;-71
2021/10/17 01:40:00;;;;;;;10.50;5.38;;;;;;;3.98;97.76;99037.91;4137482;28;20046;-72
2021/10/17 01:42:00;;;;;;;12.07;5.82;;;;;;;4.02;96.69;99041.59;4137324;28;20844;-72
2021/10/17 01:44:06;;;;;;;9.15;5.28;;;;;;;4.00;96.89;99035.66;4120967;28;20044;-72
2021/10/17 01:46:06;;;;;;;9.77;4.93;;;;;;;4.00;96.74;99033.72;4137654;28;20022;-71
2021/10/17 01:48:06;;;;;;;8.27;4.93;;;;;;;4.02;97.19;99036.94;4137025;28;20455;-71
2021/10/17 01:50:07;;;;;;;8.40;5.30;;;;;;;4.04;96.53;99033.88;4137066;28;20430;-71
2021/10/17 01:52:07;;;;;;;9.00;4.70;;;;;;;4.04;96.79;99034.66;4137552;28;20443;-72
2021/10/17 01:54:08;;;;;;;8.45;4.70;;;;;;;4.03;96.90;99037.75;4141583;28;20109;-72
2021/10/17 01:56:08;;;;;;;8.15;4.80;;;;;;;4.08;96.99;99032.13;4137501;28;20029;-72
2021/10/17 01:58:09;;;;;;;11.45;6.50;;;;;;;4.09;96.64;99042.75;4137815;28;20317;-71
2021/10/17 02:00:09;;;;;;;12.57;6.00;;;;;;;4.08;97.31;99040.34;4137572;28;20072;-71
2021/10/17 02:02:10;;;;;;;9.70;5.57;;;;;;;4.03;97.58;99032.25;4137546;28;20034;-71
2021/10/17 02:04:10;;;;;;;7.53;4.65;;;;;;;4.00;97.34;99030.19;4136215;28;20030;-72
2021/10/17 02:06:11;;;;;;;8.55;4.80;;;;;;;3.98;97.50;99029.69;4136936;28;20428;-72
2021/10/17 02:08:11;;;;;;;11.13;5.32;;;;;;;3.97;98.20;99036.28;4137131;28;20041;-72
2021/10/17 02:10:12;;;;;;;7.05;4.68;;;;;;;3.98;97.72;99029.69;4137147;28;20060;-72
2021/10/17 02:12:14;;;;;;;9.18;5.10;;;;;;;3.97;98.18;99028.06;4137013;28;20523;-71
2021/10/17 02:14:14;;;;;;;7.15;4.43;;;;;;;3.98;98.14;99018.75;4136435;28;20040;-71
2021/10/17 02:16:15;;;;;;;8.70;5.03;;;;;;;4.02;97.79;99027.91;4136827;28;20555;-71
2021/10/17 02:18:15;;;;;;;8.48;4.97;;;;;;;4.02;97.88;99025.97;4136765;28;20030;-72
2021/10/17 02:20:16;;;;;;;7.43;4.85;;;;;;;4.02;97.87;99023.25;4137253;28;20398;-71
2021/10/17 02:22:16;;;;;;;10.60;5.07;;;;;;;4.00;98.33;99024.69;4136813;28;20092;-71
2021/10/17 02:24:16;;;;;;;8.70;4.28;;;;;;;4.02;97.79;99017.78;4139846;28;20029;-71
2021/10/17 02:26:17;;;;;;;7.22;4.82;;;;;;;4.05;97.36;99025.31;4137190;28;20366;-71
2021/10/17 02:28:17;;;;;;;7.75;4.80;;;;;;;4.07;97.69;99014.06;4137025;28;20053;-71
2021/10/17 02:30:18;;;;;;;10.48;4.30;;;;;;;4.06;97.43;99015.22;4139186;28;20176;-72
2021/10/17 02:32:18;;;;;;;8.25;4.78;;;;;;;4.06;97.90;99007.78;4141003;28;20119;-72
2021/10/17 02:34:18;;;;;;;11.63;5.45;;;;;;;4.05;98.34;99011.63;4136088;28;20300;-72
2021/10/17 02:36:19;;;;;;;9.18;4.93;;;;;;;4.03;98.56;99013.91;4137061;28;20744;-71
2021/10/17 02:38:20;;;;;;;13.57;5.10;;;;;;;3.97;98.98;99006.97;4136717;28;20473;-71
2021/10/17 02:40:20;;;;;;;9.68;5.07;;;;;;;3.98;99.45;99007.78;4140838;28;20040;-71
2021/10/17 02:42:20;;;;;;;7.78;5.10;;;;;;;4.00;99.31;99016.50;4136794;28;20050;-71
2021/10/17 02:44:21;;;;;;;10.68;5.55;;;;;;;3.97;99.17;99014.38;4136226;28;20074;-71
2021/10/17 02:46:21;;;;;;;10.80;5.80;;;;;;;3.95;99.70;99001.81;4137237;28;20084;-72
2021/10/17 02:48:21;;;;;;;9.73;5.65;;;;;;;3.95;99.12;98998.28;4136034;28;20038;-72
2021/10/17 02:50:22;;;;;;;9.90;6.07;;;;;;;4.00;99.67;99011.81;4136981;28;20194;-72
2021/10/17 02:52:22;;;;;;;10.82;5.22;;;;;;;4.00;99.27;99013.75;4136337;28;20045;-72
2021/10/17 02:54:24;;;;;;;9.57;6.13;;;;;;;4.03;98.73;99015.84;4136163;28;20072;-72
2021/10/17 02:56:24;;;;;;;9.10;6.00;;;;;;;4.03;99.81;99024.06;4139049;28;20049;-72
2021/10/17 02:58:25;;;;;;;11.38;6.50;;;;;;;4.04;99.54;99018.25;4136348;28;20425;-72
2021/10/17 03:00:25;;;;;;;11.85;6.60;;;;;;;4.00;100.00;99016.50;4136543;28;20046;-72
2021/10/17 03:02:26;;;;;;;10.40;5.50;;;;;;;3.98;99.68;99005.88;4136080;28;20153;-72
2021/10/17 03:04:26;;;;;;;9.63;5.90;;;;;;;4.01;99.12;99018.91;4138932;28;20300;-72
2021/10/17 03:06:28;;;;;;;13.10;6.93;;;;;;;4.02;99.38;99009.56;4143880;28;20097;-72
2021/10/17 03:08:28;;;;;;;12.77;7.63;;;;;;;4.03;99.19;99013.91;4136328;28;20034;-72
2021/10/17 03:10:29;;;;;;;11.52;7.30;;;;;;;4.00;99.70;99013.75;4136420;28;20621;-72
2021/10/17 03:12:29;;;;;;;11.55;7.50;;;;;;;4.00;100.00;99008.28;4136662;28;20461;-72
2021/10/17 03:14:29;;;;;;;10.35;6.22;;;;;;;4.00;99.60;99011.00;4135634;28;20038;-72
2021/10/17 03:16:30;;;;;;;11.50;7.15;;;;;;;3.98;100.00;99008.59;4136346;28;20480;-72
2021/10/17 03:18:30;;;;;;;15.75;8.55;;;;;;;4.00;100.00;99011.00;4136391;28;20096;-72
2021/10/17 03:20:31;;;;;;;9.90;7.05;;;;;;;3.99;99.76;99009.41;4136791;28;20077;-72
2021/10/17 03:22:31;;;;;;;12.27;7.22;;;;;;;3.97;100.00;99003.41;4136281;28;20038;-72
2021/10/17 03:24:31;;;;;;;10.77;6.85;;;;;;;4.02;99.68;99006.00;4135374;28;20498;-72
2021/10/17 03:26:32;;;;;;;11.00;7.97;;;;;;;4.02;99.74;99006.00;4136552;28;20092;-72
2021/10/17 03:28:32;;;;;;;12.63;6.50;;;;;;;4.04;100.00;99011.97;4136824;28;20357;-71
2021/10/17 03:30:33;;;;;;;10.32;6.68;;;;;;;4.02;99.85;99009.56;4135591;28;20060;-72
2021/10/17 03:32:33;;;;;;;8.65;6.10;;;;;;;4.05;99.99;99006.16;4136353;28;20538;-72
2021/10/17 03:34:34;;;;;;;15.48;7.65;;;;;;;4.04;99.90;99011.97;4135338;28;20407;-72
2021/10/17 03:36:34;;;;;;;13.23;6.60;;;;;;;4.02;99.68;99016.97;4136535;28;20130;-72
2021/10/17 03:38:35;;;;;;;19.23;8.75;;;;;;;4.03;100.00;99013.09;4136396;28;20055;-72
2021/10/17 03:40:35;;;;;;;11.93;7.38;;;;;;;4.02;99.76;99006.00;4136221;28;20521;-72
2021/10/17 03:42:35;;;;;;;10.20;7.30;;;;;;;4.03;100.00;99002.13;4135954;28;20045;-72
2021/10/17 03:44:36;;;;;;;11.90;7.05;;;;;;;4.07;99.66;99008.59;4135011;28;20115;-72
2021/10/17 03:46:36;;;;;;;14.45;7.05;;;;;;;4.07;99.73;99005.88;4138099;28;20052;-72
2021/10/17 03:48:37;;;;;;;16.58;8.07;;;;;;;3.99;100.00;98995.72;4136209;28;20042;-72
2021/10/17 03:50:37;;;;;;;10.43;6.38;;;;;;;4.03;99.64;99002.13;4136329;28;20253;-71
2021/10/17 03:52:37;;;;;;;12.45;7.45;;;;;;;4.02;99.89;99009.56;4137107;28;20462;-72
2021/10/17 03:54:41;;;;;;;18.20;7.25;;;;;;;3.98;100.00;98994.09;4135096;28;20463;-72
2021/10/17 03:56:41;;;;;;;14.23;7.65;;;;;;;3.98;100.00;99005.06;4136838;28;20057;-72
2021/10/17 03:58:41;;;;;;;11.43;7.28;;;;;;;3.97;100.00;98993.28;4134849;28;20478;-72
2021/10/17 04:00:42;;;;;;;10.15;6.43;;;;;;;4.00;100.00;98995.38;4135900;28;20129;-72
2021/10/17 04:02:42;;;;;;;12.38;7.82;;;;;;;3.99;99.48;98998.44;4136172;28;20197;-72
2021/10/17 04:04:42;;;;;;;10.90;6.45;;;;;;;3.97;100.00;98997.94;4135255;28;20046;-72
2021/10/17 04:06:43;;;;;;;12.02;7.05;;;;;;;3.95;99.33;98992.78;4136449;28;20385;-72
2021/10/17 04:08:44;;;;;;;10.95;7.65;;;;;;;3.95;99.79;98998.28;4136013;28;20037;-72
2021/10/17 04:10:44;;;;;;;12.50;6.30;;;;;;;3.90;99.54;98995.72;4137264;28;20050;-72
2021/10/17 04:12:45;;;;;;;10.70;6.78;;;;;;;3.86;99.17;98995.53;4139230;28;20586;-72
2021/10/17 04:14:45;;;;;;;10.95;6.55;;;;;;;3.85;99.50;98993.94;4144355;28;20153;-71
2021/10/17 04:16:45;;;;;;;9.77;6.32;;;;;;;3.86;98.98;98987.31;4139215;28;20096;-72
2021/10/17 04:18:46;;;;;;;13.70;6.50;;;;;;;3.84;98.99;99003.25;4138914;28;20026;-72
2021/10/17 04:20:46;;;;;;;10.20;6.03;;;;;;;3.77;99.52;98991.97;4139548;28;20042;-72
2021/10/17 04:22:46;;;;;;;9.25;5.80;;;;;;;3.79;99.21;98992.47;4139288;28;20525;-72
2021/10/17 04:24:47;;;;;;;8.20;5.82;;;;;;;3.79;99.36;98997.13;4137822;28;20049;-72
2021/10/17 04:26:47;;;;;;;12.50;6.38;;;;;;;3.76;99.14;99011.47;4139188;28;20089;-71
2021/10/17 04:28:48;;;;;;;7.95;5.47;;;;;;;3.67;99.34;98998.56;4138414;28;20092;-71
2021/10/17 04:30:48;;;;;;;7.38;5.68;;;;;;;3.65;99.16;98994.56;4139063;28;20042;-71
2021/10/17 04:32:49;;;;;;;9.65;5.30;;;;;;;3.60;99.15;99005.66;4138379;28;20176;-71
2021/10/17 04:34:49;;;;;;;10.57;5.10;;;;;;;3.54;99.53;98995.97;4137870;28;20046;-72
2021/10/17 04:36:49;;;;;;;10.02;6.45;;;;;;;3.54;98.66;98995.97;4139014;28;20461;-71
2021/10/17 04:38:51;;;;;;;8.57;5.13;;;;;;;3.45;98.64;98995.16;4137357;28;20046;-71
2021/10/17 04:40:51;;;;;;;7.68;4.95;;;;;;;3.41;99.18;98994.19;4138783;28;20041;-71
2021/10/17 04:42:52;;;;;;;10.73;5.22;;;;;;;3.33;98.26;99003.97;4143502;28;20034;-71
2021/10/17 04:44:52;;;;;;;5.85;4.53;;;;;;;3.21;98.51;99004.56;4137869;28;20117;-72
2021/10/17 04:46:53;;;;;;;11.95;5.93;;;;;;;3.21;99.00;99001.84;4138958;28;20042;-72
2021/10/17 04:48:53;;;;;;;8.63;5.20;;;;;;;3.13;98.96;99001.81;4138465;28;20048;-72
2021/10/17 04:50:53;;;;;;;8.25;4.80;;;;;;;3.01;98.96;99003.22;4138461;28;20414;-72
2021/10/17 04:52:53;;;;;;;14.10;6.07;;;;;;;2.93;99.49;99008.66;4138599;28;20206;-72
2021/10/17 04:54:54;;;;;;;8.77;4.97;;;;;;;2.91;99.83;99008.16;4137994;28;20488;-71
2021/10/17 04:56:54;;;;;;;10.43;5.45;;;;;;;2.86;100.00;99020.03;4139943;28;20378;-71
2021/10/17 04:58:55;;;;;;;9.05;5.45;;;;;;;2.87;100.00;99013.44;4137972;28;20438;-71
2021/10/17 05:00:55;;;;;;;8.68;5.78;;;;;;;2.85;100.00;99012.94;4138697;28;20038;-71
2021/10/17 05:02:55;;;;;;;10.45;6.18;;;;;;;2.77;99.80;99010.97;4139325;28;20053;-71
2021/10/17 05:04:56;;;;;;;10.77;5.50;;;;;;;2.80;100.00;99013.06;4137622;28;20042;-71
2021/10/17 05:06:56;;;;;;;11.18;5.70;;;;;;;2.78;99.80;99010.66;4138483;28;20151;-72
2021/10/17 05:08:56;;;;;;;9.48;5.68;;;;;;;2.76;99.35;99017.56;4138208;28;20100;-71
2021/10/17 05:10:57;;;;;;;10.27;5.80;;;;;;;2.68;98.73;99018.31;4138541;28;20060;-71
2021/10/17 05:12:58;;;;;;;9.23;5.90;;;;;;;2.65;99.43;99022.50;4137812;28;20206;-71
2021/10/17 05:14:58;;;;;;;10.45;6.00;;;;;;;2.54;99.14;99016.47;4137458;28;20041;-71
2021/10/17 05:16:58;;;;;;;8.52;5.32;;;;;;;2.50;99.20;99022.88;4138160;28;20401;-71
2021/10/17 05:18:59;;;;;;;9.98;5.50;;;;;;;2.45;99.65;99020.25;4138550;28;20086;-71
2021/10/17 05:21:00;;;;;;;8.48;5.57;;;;;;;2.48;100.00;99022.38;4138983;28;20042;-71
2021/10/17 05:23:00;;;;;;;22.83;8.93;;;;;;;2.39;99.69;99019.56;4136660;28;20045;-71
2021/10/17 05:25:00;;;;;;;12.82;6.65;;;;;;;2.37;100.00;99021.00;4137298;28;20056;-71
2021/10/17 05:27:01;;;;;;;16.75;9.10;;;;;;;2.37;99.86;99029.22;4137813;28;20595;-71
2021/10/17 05:29:01;;;;;;;12.68;7.32;;;;;;;2.33;99.37;99026.31;4137740;28;20038;-71
2021/10/17 05:31:03;;;;;;;11.35;6.97;;;;;;;2.31;99.51;99024.97;4137790;28;20053;-71
2021/10/17 05:33:03;;;;;;;11.63;7.05;;;;;;;2.25;99.91;99033.31;4137928;28;20034;-71
2021/10/17 05:35:04;;;;;;;9.73;6.85;;;;;;;2.22;100.00;99028.44;4137409;28;20042;-71
2021/10/17 05:37:04;;;;;;;10.88;6.72;;;;;;;2.25;100.00;99035.22;4138208;28;20033;-71
2021/10/17 05:39:05;;;;;;;14.77;7.72;;;;;;;2.18;99.90;99032.94;4141990;28;20053;-72
2021/10/17 05:41:06;;;;;;;14.80;6.65;;;;;;;2.25;100.00;99040.69;4137263;28;20148;-72
2021/10/17 05:43:07;;;;;;;11.02;6.90;;;;;;;2.17;100.00;99035.97;4137267;28;20552;-72
2021/10/17 05:45:08;;;;;;;15.55;6.32;;;;;;;2.11;100.00;99039.94;4137235;28;20046;-71
2021/10/17 05:47:08;;;;;;;7.97;6.07;;;;;;;2.14;100.00;99034.66;4138166;28;20042;-71
2021/10/17 05:49:09;;;;;;;11.70;6.80;;;;;;;2.13;100.00;99048.59;4135369;28;20390;-71
2021/10/17 05:51:09;;;;;;;12.57;7.53;;;;;;;2.16;100.00;99053.47;4138370;28;20320;-71
2021/10/17 05:53:10;;;;;;;10.25;5.65;;;;;;;2.15;100.00;99043.63;4137164;28;20088;-71
2021/10/17 05:55:10;;;;;;;10.98;6.18;;;;;;;2.19;100.00;99052.84;4142513;28;20037;-71
2021/10/17 05:57:10;;;;;;;9.77;5.50;;;;;;;2.20;100.00;99043.53;4137171;28;20077;-71
2021/10/17 05:59:11;;;;;;;7.65;5.18;;;;;;;2.14;100.00;99042.03;4140487;28;20042;-71
2021/10/17 06:01:12;;;;;;;7.13;5.10;;;;;;;2.17;100.00;99047.69;4137198;28;20050;-71
2021/10/17 06:03:12;;;;;;;7.25;5.28;;;;;;;2.17;100.00;99046.88;4136612;28;20052;-71
2021/10/17 06:05:12;;;;;;;8.77;5.45;;;;;;;2.23;100.00;99042.91;4147491;28;20034;-72
2021/10/17 06:07:13;;;;;;;13.02;6.82;;;;;;;2.24;100.00;99050.81;4141395;28;20245;-72
2021/10/17 06:09:13;;;;;;;15.38;7.60;;;;;;;2.29;100.00;99052.59;4137123;28;20104;-72
2021/10/17 06:11:14;;;;;;;14.82;7.65;;;;;;;2.32;100.00;99048.44;4136686;28;20215;-72
2021/10/17 06:13:14;;;;;;;13.65;7.10;;;;;;;2.33;100.00;99056.34;4136564;28;20059;-72
2021/10/17 06:15:14;;;;;;;12.70;6.65;;;;;;;2.31;99.86;99055.00;4138813;28;20569;-72
2021/10/17 06:17:15;;;;;;;11.30;6.55;;;;;;;2.31;99.50;99065.94;4137333;28;20386;-71
2021/10/17 06:19:15;;;;;;;11.85;6.30;;;;;;;2.26;100.00;99058.69;4136482;28;20044;-72
2021/10/17 06:21:15;;;;;;;8.70;6.07;;;;;;;2.27;100.00;99062.22;4137243;28;20128;-71
2021/10/17 06:23:16;;;;;;;14.85;8.02;;;;;;;2.31;100.00;99058.53;4136138;28;20135;-71
2021/10/17 06:25:16;;;;;;;14.02;6.90;;;;;;;2.34;100.00;99063.41;4142305;28;20480;-71
2021/10/17 06:27:17;;;;;;;15.55;8.27;;;;;;;2.41;100.00;99060.25;4137379;28;20429;-71
2021/10/17 06:29:18;;;;;;;12.70;7.82;;;;;;;2.43;100.00;99067.00;4136525;28;20831;-71
2021/10/17 06:31:18;;;;;;;25.35;12.65;;;;;;;2.43;100.00;99066.22;4137222;28;20042;-71
2021/10/17 06:33:18;;;;;;;15.40;9.55;;;;;;;2.42;99.88;99068.13;4136234;28;20309;-71
2021/10/17 06:35:19;;;;;;;16.00;9.02;;;;;;;2.47;99.45;99068.00;4136941;28;20514;-71
2021/10/17 06:37:19;;;;;;;19.48;11.23;;;;;;;2.52;99.40;99073.34;4137027;28;20400;-71
2021/10/17 06:39:19;;;;;;;20.00;10.70;;;;;;;2.61;99.52;99067.94;4136517;28;20068;-71
2021/10/17 06:41:20;;;;;;;17.05;10.38;;;;;;;2.67;99.26;99066.69;4136176;28;20152;-71
2021/10/17 06:43:20;;;;;;;21.23;10.55;;;;;;;2.68;99.35;99062.84;4135725;28;20080;-71
2021/10/17 06:45:20;;;;;;;18.35;10.57;;;;;;;2.71;99.25;99069.59;4136800;28;20069;-71
2021/10/17 06:47:21;;;;;;;19.73;12.00;;;;;;;2.70;99.30;99065.25;4138816;28;20536;-72
2021/10/17 06:49:21;;;;;;;25.75;13.98;;;;;;;2.72;99.23;99069.28;4136657;28;20463;-72
2021/10/17 06:51:21;;;;;;;24.48;13.45;;;;;;;2.71;99.58;99073.13;4138251;28;20509;-71
2021/10/17 06:53:22;;;;;;;21.10;12.30;;;;;;;2.73;99.91;99072.81;4136434;28;20140;-72
2021/10/17 06:55:22;;;;;;;22.27;12.40;;;;;;;2.75;99.95;99081.53;4136569;28;20045;-71
2021/10/17 06:57:23;;;;;;;20.60;11.68;;;;;;;2.75;99.74;99074.16;4136915;28;20042;-71
2021/10/17 06:59:23;;;;;;;18.95;10.57;;;;;;;2.75;99.68;99079.63;4137050;28;20417;-71
2021/10/17 07:01:24;;;;;;;23.10;12.98;;;;;;;2.76;100.00;99070.28;4137641;28;20776;-71
2021/10/17 07:03:24;;;;;;;24.38;15.45;;;;;;;2.86;100.00;99082.09;4135511;28;20387;-71
2021/10/17 07:05:24;;;;;;;24.10;14.60;;;;;;;2.86;100.00;99079.34;4141709;28;20303;-71
2021/10/17 07:07:25;;;;;;;22.73;16.70;;;;;;;2.92;100.00;99083.56;4136012;28;20486;-71
2021/10/17 07:09:25;;;;;;;28.83;19.30;;;;;;;2.98;100.00;99090.50;4139686;28;20042;-72
2021/10/17 07:11:25;;;;;;;15.82;10.90;;;;;;;3.07;100.00;99097.66;4136826;28;20111;-72
2021/10/17 07:13:26;;;;;;;16.40;10.20;;;;;;;3.12;100.00;99095.88;4136309;28;20394;-72
2021/10/17 07:15:26;;;;;;;15.90;10.40;;;;;;;3.19;100.00;99099.00;4136031;28;20100;-72
2021/10/17 07:17:27;;;;;;;17.27;9.32;;;;;;;3.21;100.00;99102.22;4135945;28;20089;-72
2021/10/17 07:19:27;;;;;;;17.73;10.70;;;;;;;3.27;100.00;99104.50;4136886;28;20070;-72
2021/10/17 07:21:27;;;;;;;21.52;14.05;;;;;;;3.30;100.00;99103.84;4135728;28;20046;-72
2021/10/17 07:23:28;;;;;;;20.15;13.45;;;;;;;3.38;100.00;99102.28;4134542;28;20042;-72
2021/10/17 07:25:28;;;;;;;15.70;10.77;;;;;;;3.44;100.00;99103.75;4140678;28;20036;-72
2021/10/17 07:27:28;;;;;;;13.13;9.43;;;;;;;3.49;100.00;99105.56;4136314;28;20046;-71
2021/10/17 07:29:29;;;;;;;18.63;10.13;;;;;;;3.57;100.00;99100.13;4139123;28;20046;-71
2021/10/17 07:31:29;;;;;;;16.75;10.38;;;;;;;3.64;99.92;99103.22;4136400;28;20046;-71
2021/10/17 07:33:30;;;;;;;17.42;10.73;;;;;;;3.74;99.10;99104.84;4140257;28;20041;-72
2021/10/17 07:35:30;;;;;;;13.73;8.63;;;;;;;3.84;98.86;99110.03;4136721;28;20120;-72
2021/10/17 07:37:31;;;;;;;13.95;7.90;;;;;;;3.95;98.75;99107.78;4136496;28;20478;-72
2021/10/17 07:39:31;;;;;;;12.27;7.35;;;;;;;4.07;98.21;99107.19;4137837;28;20476;-71
2021/10/17 07:41:32;;;;;;;8.00;6.00;;;;;;;4.21;98.61;99108.63;4135207;28;20046;-71
2021/10/17 07:43:32;;;;;;;8.45;5.50;;;;;;;4.31;97.99;99112.22;4136012;28;20100;-71
2021/10/17 07:45:33;;;;;;;14.07;6.93;;;;;;;4.45;97.57;99108.16;4137902;28;20041;-72
2021/10/17 07:47:34;;;;;;;12.35;6.03;;;;;;;4.53;97.53;99109.28;4144975;28;20184;-71
2021/10/17 07:49:35;;;;;;;13.20;6.90;;;;;;;4.65;96.96;99105.91;4140006;28;20084;-71
2021/10/17 07:51:35;;;;;;;11.77;5.85;;;;;;;4.72;95.54;99106.25;4143121;28;20049;-72
2021/10/17 07:53:36;;;;;;;10.25;6.50;;;;;;;4.73;95.35;99097.69;4140577;28;20064;-72
2021/10/17 07:55:36;;;;;;;7.75;5.43;;;;;;;4.88;95.38;99109.25;4143464;28;20042;-72
2021/10/17 07:57:47;;;;;;;9.13;5.45;;;;;;;5.00;96.47;99112.16;4139571;28;20157;-72
2021/10/17 07:59:48;;;;;;;8.50;5.40;;;;;;;5.07;96.14;99107.00;4139485;28;20081;-71
2021/10/17 08:01:50;;;;;;;11.02;6.07;;;;;;;5.13;94.29;99113.09;4139487;28;20045;-71
2021/10/17 08:03:50;;;;;;;7.18;4.70;;;;;;;5.19;94.54;99109.03;4138981;28;20091;-71
2021/10/17 08:05:50;;;;;;;11.73;6.18;;;;;;;5.27;91.71;99109.03;4139651;28;20077;-71
2021/10/17 08:07:54;;;;;;;8.00;5.47;;;;;;;5.37;91.85;99113.34;4138924;28;20049;-71
2021/10/17 08:09:54;;;;;;;7.07;5.35;;;;;;;5.43;91.41;99105.75;4139521;28;20049;-71
2021/10/17 08:11:55;;;;;;;12.82;5.22;;;;;;;5.48;91.78;99105.56;4139465;28;20050;-72
2021/10/17 08:13:55;;;;;;;11.77;4.65;;;;;;;5.56;93.01;99113.78;4138700;28;20080;-71
2021/10/17 08:15:56;;;;;;;6.38;4.10;;;;;;;5.61;93.76;99108.06;4139518;28;20104;-72
2021/10/17 08:17:56;;;;;;;6.65;4.60;;;;;;;5.68;94.81;99115.00;4144916;28;20077;-71
2021/10/17 08:19:57;;;;;;;9.20;5.30;;;;;;;5.73;93.02;99114.81;4139455;28;20077;-71
2021/10/17 08:21:57;;;;;;;8.68;5.20;;;;;;;5.78;93.62;99107.19;4138809;28;20160;-71
2021/10/17 08:23:58;;;;;;;6.75;5.32;;;;;;;5.83;93.24;99104.28;4138624;28;20593;-72
2021/10/17 08:25:58;;;;;;;10.18;5.20;;;;;;;5.85;93.16;99107.47;4139255;28;20482;-72
2021/10/17 08:28:00;;;;;;;8.88;5.28;;;;;;;5.90;92.54;99107.34;4139190;28;20073;-72
2021/10/17 08:30:00;;;;;;;8.38;5.32;;;;;;;5.96;92.63;99107.97;4141850;28;20052;-72
2021/10/17 08:32:00;;;;;;;10.82;5.40;;;;;;;6.02;90.09;99106.59;4139276;28;20913;-72
2021/10/17 08:34:01;;;;;;;10.30;5.07;;;;;;;6.13;89.82;99107.03;4138254;28;20453;-72
2021/10/17 08:36:01;;;;;;;8.93;5.00;;;;;;;6.17;91.97;99102.47;4138437;28;20370;-72
2021/10/17 08:38:02;;;;;;;9.73;4.97;;;;;;;6.28;90.04;99108.38;4139082;28;20036;-72
2021/10/17 08:40:03;;;;;;;8.02;4.82;;;;;;;6.35;92.28;99100.41;4139053;28;20433;-72
2021/10/17 08:42:03;;;;;;;9.98;4.38;;;;;;;6.41;91.51;99105.38;4139268;28;20767;-72
2021/10/17 08:44:05;;;;;;;26.95;11.68;;;;;;;6.48;91.46;99097.41;4137991;28;20084;-71
2021/10/17 08:46:05;;;;;;;20.95;9.63;;;;;;;6.53;91.61;99098.31;4139060;28;20187;-72
2021/10/17 08:48:06;;;;;;;13.00;6.70;;;;;;;6.63;91.88;99101.50;4140470;28;20081;-72
2021/10/17 08:50:08;;;;;;;12.32;7.15;;;;;;;6.65;91.23;99092.91;4138550;28;20026;-71
2021/10/17 08:52:10;;;;;;;13.88;6.75;;;;;;;6.72;92.56;99102.22;4139120;28;20699;-72
2021/10/17 08:54:10;;;;;;;8.68;6.18;;;;;;;6.84;92.91;99108.91;4138131;28;20038;-72
2021/10/17 08:56:14;;;;;;;11.30;5.63;;;;;;;6.87;91.70;99098.03;4142473;28;20349;-72
2021/10/17 08:58:14;;;;;;;9.23;6.05;;;;;;;6.96;90.05;99100.72;4137591;28;20041;-72
2021/10/17 09:00:33;;;;;;;18.17;8.38;;;;;;;7.00;89.34;99101.63;4138713;28;20447;-72
2021/10/17 09:02:42;;;;;;;12.90;6.82;;;;;;;7.06;90.15;99100.28;4139483;28;20033;-72
2021/10/17 09:04:43;;;;;;;12.88;6.80;;;;;;;7.06;90.19;99094.78;4137846;28;20034;-72
2021/10/17 09:06:46;;;;;;;19.70;11.68;;;;;;;7.15;90.90;99089.97;4138657;28;20053;-72
2021/10/17 09:08:47;;;;;;;23.60;13.32;;;;;;;7.19;91.44;99090.88;4138294;28;20620;-71
2021/10/17 09:10:50;;;;;;;17.75;10.38;;;;;;;7.23;91.87;99091.81;4138589;28;20120;-72
2021/10/17 09:12:50;;;;;;;22.17;12.00;;;;;;;7.29;91.51;99086.91;4142873;28;20047;-71
2021/10/17 09:14:50;;;;;;;27.98;15.27;;;;;;;7.36;91.81;99084.38;4139453;28;20061;-72
2021/10/17 09:16:53;;;;;;;30.30;15.75;;;;;;;7.41;91.21;99089.69;4138501;28;20548;-72
2021/10/17 09:19:12;;;;;;;;;;;;;;;7.45;91.10;99092.56;4139160;28;20049;-72
2021/10/17 09:21:12;;;;;;;22.77;11.68;;;;;;;7.46;89.96;99086.72;4141965;28;19921;-72
2021/10/17 09:23:15;;;;;;;19.60;11.88;;;;;;;7.51;89.99;99085.66;4137361;28;20095;-72
2021/10/17 09:25:29;;;;;;;30.83;14.73;;;;;;;7.55;88.80;99083.84;4138577;28;20048;-72
2021/10/17 09:27:30;;;;;;;32.65;14.93;;;;;;;7.58;88.86;99080.41;4138802;28;20046;-72
2021/10/17 09:29:31;;;;;;;23.50;12.43;;;;;;;7.60;88.11;99083.59;4137819;28;20045;-72